Time;durP1;ratioP1;P1;durP2;ratioP2;P2;SDS_P1;SDS_P2;PMS_P1;PMS_P2;Temp;Humidity;BMP_temperature;BMP_pressure;BME280_temperature;BME280_humidity;BME280_pressure;Samples;Min_cycle;Max_cycle;Signal;HPM_P1;HPM_P2
2023/12/15 00:02:21;;;;;;;40.35;16.95;;;4.90;99.90;;;;;;4991792;28;20050;-72
2023/12/15 00:04:47;;;;;;;41.13;17.23;;;4.90;99.90;;;;;;4992374;28;20061;-73
2023/12/15 00:07:13;;;;;;;38.88;15.98;;;4.90;99.90;;;;;;5006079;28;20007;-73
2023/12/15 00:09:38;;;;;;;44.30;17.95;;;5.00;99.90;;;;;;4991752;28;20115;-72
2023/12/15 00:12:04;;;;;;;36.50;15.82;;;5.00;99.90;;;;;;4991236;28;20050;-73
2023/12/15 00:14:30;;;;;;;40.85;17.20;;;5.00;99.90;;;;;;4990674;28;20034;-73
2023/12/15 00:16:55;;;;;;;40.08;17.45;;;5.00;99.90;;;;;;4989187;28;20616;-73
2023/12/15 00:19:21;;;;;;;39.28;16.35;;;4.90;99.90;;;;;;5006747;28;20031;-72
2023/12/15 00:21:46;;;;;;;42.65;17.58;;;4.90;99.90;;;;;;4991990;28;20029;-73
2023/12/15 00:24:12;;;;;;;41.33;17.35;;;4.90;99.90;;;;;;4991424;28;20022;-73
2023/12/15 00:26:37;;;;;;;42.28;17.90;;;4.90;99.90;;;;;;4991380;28;20061;-73
2023/12/15 00:29:03;;;;;;;40.75;16.98;;;4.90;99.90;;;;;;4991756;28;20716;-73
2023/12/15 00:31:29;;;;;;;40.03;17.38;;;4.90;99.90;;;;;;4991558;28;20035;-72
2023/12/15 00:33:55;;;;;;;43.72;17.50;;;4.90;99.90;;;;;;4991079;28;20062;-73
2023/12/15 00:36:20;;;;;;;46.47;17.90;;;4.90;99.90;;;;;;4991483;28;20030;-72
2023/12/15 00:38:46;;;;;;;46.60;18.42;;;4.90;99.90;;;;;;4991240;28;20530;-72
2023/12/15 00:41:12;;;;;;;53.00;20.92;;;4.90;99.90;;;;;;4991660;28;20018;-73
2023/12/15 00:43:37;;;;;;;44.50;18.02;;;4.90;99.90;;;;;;5006355;28;20049;-72
2023/12/15 00:46:03;;;;;;;50.15;19.42;;;4.90;99.90;;;;;;4991496;28;20114;-73
2023/12/15 00:48:29;;;;;;;44.40;18.85;;;4.90;99.90;;;;;;4991369;28;20022;-70
2023/12/15 00:50:54;;;;;;;50.67;18.80;;;4.90;99.90;;;;;;4990386;28;20018;-73
2023/12/15 00:53:20;;;;;;;56.55;20.92;;;5.00;99.90;;;;;;5006227;28;20045;-72
2023/12/15 00:55:46;;;;;;;50.78;19.52;;;4.90;99.90;;;;;;4993906;28;20034;-72
2023/12/15 00:58:13;;;;;;;54.50;20.83;;;4.90;99.90;;;;;;4993796;28;20037;-72
2023/12/15 01:00:39;;;;;;;53.45;21.13;;;4.90;99.90;;;;;;5000637;28;20027;-73
2023/12/15 01:03:04;;;;;;;48.95;19.70;;;5.00;99.90;;;;;;4995053;28;20999;-73
2023/12/15 01:05:30;;;;;;;50.90;21.10;;;4.90;99.90;;;;;;4994340;28;20030;-73
2023/12/15 01:07:56;;;;;;;47.92;20.00;;;4.90;99.90;;;;;;4994852;28;20100;-73
2023/12/15 01:10:21;;;;;;;47.92;20.02;;;4.90;99.90;;;;;;4995126;28;20049;-72
2023/12/15 01:12:47;;;;;;;52.30;20.10;;;4.90;99.90;;;;;;4994518;28;20137;-72
2023/12/15 01:15:12;;;;;;;54.97;20.58;;;4.90;99.90;;;;;;4993682;28;20030;-72
2023/12/15 01:17:38;;;;;;;54.13;21.98;;;4.90;99.90;;;;;;4994710;28;20034;-72
2023/12/15 01:20:04;;;;;;;58.97;22.27;;;5.00;99.90;;;;;;4994647;28;20360;-72
2023/12/15 01:22:30;;;;;;;63.42;25.67;;;4.90;99.90;;;;;;4994429;28;20023;-72
2023/12/15 01:24:55;;;;;;;61.67;24.65;;;4.90;99.90;;;;;;4994348;28;20076;-71
2023/12/15 01:27:21;;;;;;;64.32;26.08;;;4.90;99.90;;;;;;4994131;28;20038;-73
2023/12/15 01:29:46;;;;;;;64.68;28.15;;;4.90;99.90;;;;;;4994551;28;20042;-72
2023/12/15 01:32:12;;;;;;;66.82;27.75;;;4.90;99.90;;;;;;4994439;28;20049;-72
2023/12/15 01:34:37;;;;;;;60.40;23.48;;;4.90;99.90;;;;;;4994931;28;20062;-72
2023/12/15 01:37:03;;;;;;;54.67;21.90;;;4.90;99.90;;;;;;4994524;28;20026;-72
2023/12/15 01:39:29;;;;;;;56.47;21.75;;;4.90;99.90;;;;;;4994460;28;20022;-70
2023/12/15 01:41:54;;;;;;;50.53;20.92;;;4.90;99.90;;;;;;4994235;28;20054;-74
2023/12/15 01:44:20;;;;;;;54.60;20.38;;;5.00;99.90;;;;;;4994618;28;20038;-73
2023/12/15 01:46:45;;;;;;;51.53;18.55;;;4.90;99.90;;;;;;4993120;28;20026;-70
2023/12/15 01:49:11;;;;;;;56.75;21.10;;;4.90;99.90;;;;;;4992517;28;20626;-72
2023/12/15 01:51:37;;;;;;;59.28;20.88;;;4.90;99.90;;;;;;4993440;28;20039;-72
2023/12/15 01:54:03;;;;;;;58.42;20.38;;;4.90;99.90;;;;;;4993967;28;20038;-72
2023/12/15 01:56:28;;;;;;;54.88;20.65;;;4.90;99.90;;;;;;4993930;28;20082;-72
2023/12/15 01:58:54;;;;;;;53.85;20.42;;;4.80;99.90;;;;;;4993912;28;20026;-72
2023/12/15 02:01:20;;;;;;;55.50;20.50;;;4.80;99.90;;;;;;4994220;28;20034;-71
2023/12/15 02:03:45;;;;;;;63.20;22.25;;;4.80;99.90;;;;;;4992888;28;20419;-72
2023/12/15 02:06:11;;;;;;;60.47;21.83;;;4.80;99.90;;;;;;4992730;28;20034;-72
2023/12/15 02:08:36;;;;;;;58.25;21.88;;;4.80;99.90;;;;;;4993112;28;20035;-70
2023/12/15 02:11:02;;;;;;;60.80;21.05;;;4.80;99.90;;;;;;4992543;28;20061;-72
2023/12/15 02:13:28;;;;;;;62.08;22.80;;;4.80;99.90;;;;;;4992113;28;20054;-71
2023/12/15 02:15:54;;;;;;;62.28;22.30;;;4.80;99.90;;;;;;4993533;28;20022;-71
2023/12/15 02:18:19;;;;;;;65.63;21.45;;;4.80;99.90;;;;;;4992960;28;20029;-69
2023/12/15 02:20:45;;;;;;;73.80;23.70;;;4.80;99.90;;;;;;4993626;28;20031;-72
2023/12/15 02:23:10;;;;;;;67.38;22.35;;;4.80;99.90;;;;;;4993523;28;20037;-70
2023/12/15 02:25:36;;;;;;;77.22;24.60;;;4.80;99.90;;;;;;4992367;28;20046;-71
2023/12/15 02:28:03;;;;;;;87.75;27.10;;;4.80;99.90;;;;;;4992248;28;20066;-71
2023/12/15 02:30:28;;;;;;;89.85;27.23;;;4.80;99.90;;;;;;4992513;28;20463;-71
2023/12/15 02:32:54;;;;;;;78.90;25.10;;;4.80;99.90;;;;;;4993326;28;20084;-71
2023/12/15 02:35:20;;;;;;;85.10;25.77;;;4.70;99.90;;;;;;5007626;28;20031;-71
2023/12/15 02:37:45;;;;;;;85.95;26.02;;;4.80;99.90;;;;;;4991541;28;20074;-71
2023/12/15 02:40:11;;;;;;;91.82;24.92;;;4.70;99.90;;;;;;4991571;28;20035;-71
2023/12/15 02:42:37;;;;;;;85.88;26.92;;;4.80;99.90;;;;;;4992301;28;20023;-71
2023/12/15 02:45:03;;;;;;;95.00;27.02;;;4.80;99.90;;;;;;4992980;28;20086;-69
2023/12/15 02:47:28;;;;;;;99.43;28.23;;;4.70;99.90;;;;;;4992458;28;20034;-69
2023/12/15 02:49:54;;;;;;;103.55;28.60;;;4.80;99.90;;;;;;4991329;28;20034;-71
2023/12/15 02:52:20;;;;;;;100.95;27.48;;;4.70;99.90;;;;;;4992499;28;20054;-71
2023/12/15 02:54:46;;;;;;;96.18;26.77;;;4.80;99.90;;;;;;4990591;28;20058;-70
2023/12/15 02:57:11;;;;;;;89.97;26.15;;;4.80;99.90;;;;;;4991965;28;20019;-71
2023/12/15 02:59:37;;;;;;;91.28;26.35;;;4.80;99.90;;;;;;4993032;28;20385;-70
2023/12/15 03:02:03;;;;;;;94.93;28.13;;;4.80;99.90;;;;;;4991914;28;20028;-70
2023/12/15 03:04:29;;;;;;;104.32;29.25;;;4.80;99.90;;;;;;4991576;28;20069;-71
2023/12/15 03:06:55;;;;;;;101.38;28.60;;;4.80;99.90;;;;;;4993293;28;20045;-70
2023/12/15 03:09:21;;;;;;;93.75;28.25;;;4.80;99.90;;;;;;4992832;28;20030;-71
2023/12/15 03:11:47;;;;;;;89.35;27.13;;;4.80;99.90;;;;;;4990820;28;20027;-71
2023/12/15 03:14:12;;;;;;;94.95;28.65;;;4.90;99.90;;;;;;4992167;28;20066;-71
2023/12/15 03:16:38;;;;;;;99.43;28.70;;;4.80;99.90;;;;;;4992132;28;20057;-71
2023/12/15 03:19:03;;;;;;;95.18;29.17;;;4.80;99.90;;;;;;4987897;28;20054;-71
2023/12/15 03:21:29;;;;;;;100.95;30.30;;;4.80;99.90;;;;;;4990229;28;20041;-70
2023/12/15 03:23:54;;;;;;;102.65;30.30;;;4.80;99.90;;;;;;4991666;28;20076;-72
2023/12/15 03:26:20;;;;;;;103.65;29.92;;;4.80;99.90;;;;;;4991682;28;20562;-70
2023/12/15 03:28:46;;;;;;;100.10;30.50;;;4.80;99.90;;;;;;4991994;28;20026;-70
2023/12/15 03:31:11;;;;;;;99.40;31.63;;;4.80;99.90;;;;;;4992191;28;20524;-70
2023/12/15 03:33:37;;;;;;;116.53;31.63;;;4.90;99.90;;;;;;4992066;28;20046;-71
2023/12/15 03:36:04;;;;;;;107.75;32.70;;;4.80;99.90;;;;;;4990638;28;20026;-70
2023/12/15 03:38:29;;;;;;;110.57;33.22;;;4.80;99.90;;;;;;4992386;28;20065;-70
2023/12/15 03:40:55;;;;;;;114.18;33.05;;;4.80;99.90;;;;;;4992198;28;20018;-71
2023/12/15 03:43:20;;;;;;;115.80;33.35;;;4.90;99.90;;;;;;4992618;28;20026;-70
2023/12/15 03:45:46;;;;;;;110.78;32.90;;;4.80;99.90;;;;;;4992113;28;20019;-71
2023/12/15 03:48:12;;;;;;;104.72;31.60;;;4.80;99.90;;;;;;4990647;28;20090;-70
2023/12/15 03:50:37;;;;;;;104.82;33.58;;;4.80;99.90;;;;;;4991185;28;20027;-71
2023/12/15 03:53:03;;;;;;;112.95;33.08;;;4.80;99.90;;;;;;4989542;28;20058;-71
2023/12/15 03:55:28;;;;;;;115.50;33.15;;;4.90;99.90;;;;;;4989280;28;20042;-71
2023/12/15 03:57:54;;;;;;;111.95;35.15;;;4.80;99.90;;;;;;4991471;28;20023;-71
2023/12/15 04:00:20;;;;;;;118.53;34.83;;;4.80;99.90;;;;;;4991256;28;20034;-70
2023/12/15 04:02:46;;;;;;;109.50;33.90;;;4.80;99.90;;;;;;4991512;28;20048;-72
2023/12/15 04:05:12;;;;;;;118.45;35.15;;;4.80;99.90;;;;;;4991055;28;20049;-70
2023/12/15 04:07:38;;;;;;;125.25;35.53;;;4.80;99.90;;;;;;4991587;28;20503;-70
2023/12/15 04:10:04;;;;;;;117.13;34.45;;;4.80;99.90;;;;;;4990398;28;20027;-70
2023/12/15 04:12:30;;;;;;;118.70;36.30;;;4.90;99.90;;;;;;4991755;28;20061;-71
2023/12/15 04:14:55;;;;;;;111.78;34.92;;;4.90;99.90;;;;;;4991013;28;20062;-70
2023/12/15 04:17:21;;;;;;;116.10;34.42;;;4.90;99.90;;;;;;4991449;28;20069;-70
2023/12/15 04:19:47;;;;;;;130.35;36.70;;;4.90;99.90;;;;;;4992452;28;20027;-71
2023/12/15 04:22:12;;;;;;;123.68;34.67;;;5.00;99.90;;;;;;4991085;28;20034;-71
2023/12/15 04:24:38;;;;;;;99.88;30.45;;;4.90;99.90;;;;;;4991324;28;20110;-70
2023/12/15 04:27:03;;;;;;;133.10;36.75;;;4.90;99.90;;;;;;4989428;28;20119;-70
2023/12/15 04:29:29;;;;;;;127.43;37.13;;;4.90;99.90;;;;;;4992043;28;20018;-70
2023/12/15 04:31:54;;;;;;;129.95;36.67;;;4.90;99.90;;;;;;4993072;28;20023;-71
2023/12/15 04:34:20;;;;;;;131.32;36.10;;;4.90;99.90;;;;;;4995754;28;20050;-70
2023/12/15 04:36:46;;;;;;;131.95;38.50;;;4.90;99.90;;;;;;4994528;28;20050;-71
2023/12/15 04:39:11;;;;;;;136.75;38.05;;;5.00;99.90;;;;;;4995206;28;20471;-71
2023/12/15 04:41:37;;;;;;;147.30;37.78;;;5.00;99.90;;;;;;4994244;28;20030;-71
2023/12/15 04:44:02;;;;;;;156.18;39.10;;;5.00;99.90;;;;;;4995495;28;20042;-71
2023/12/15 04:46:29;;;;;;;147.05;36.45;;;5.00;99.90;;;;;;4995414;28;20030;-70
2023/12/15 04:48:57;;;;;;;146.32;38.30;;;5.00;99.90;;;;;;4994894;28;20026;-73
2023/12/15 04:51:23;;;;;;;187.30;41.42;;;5.00;99.90;;;;;;4994919;28;20050;-70
2023/12/15 04:53:50;;;;;;;164.20;40.03;;;5.00;99.90;;;;;;4994291;28;20032;-71
2023/12/15 04:56:16;;;;;;;168.68;40.58;;;5.00;99.90;;;;;;4993784;28;20101;-72
2023/12/15 04:58:42;;;;;;;162.85;39.28;;;5.00;99.90;;;;;;4993804;28;20113;-70
2023/12/15 05:01:12;;;;;;;133.25;38.72;;;5.10;99.90;;;;;;4995048;28;20054;-68
2023/12/15 05:03:42;;;;;;;172.18;40.60;;;5.10;99.90;;;;;;4994373;28;20086;-68
2023/12/15 05:06:19;;;;;;;152.15;37.45;;;5.10;99.90;;;;;;4992016;28;20031;-69
2023/12/15 05:08:45;;;;;;;166.73;40.90;;;5.10;99.90;;;;;;4993593;28;20073;-68
2023/12/15 05:11:11;;;;;;;183.15;41.10;;;5.20;99.90;;;;;;4995011;28;20026;-70
2023/12/15 05:13:36;;;;;;;202.80;43.65;;;5.10;99.90;;;;;;4994121;28;20083;-69
2023/12/15 05:16:02;;;;;;;194.55;42.22;;;5.30;99.90;;;;;;4994857;28;20026;-71
2023/12/15 05:18:27;;;;;;;175.60;39.15;;;5.20;99.90;;;;;;4993669;28;20042;-69
2023/12/15 05:20:53;;;;;;;173.23;40.28;;;5.20;99.90;;;;;;4994841;28;20022;-71
2023/12/15 05:23:18;;;;;;;175.02;41.00;;;5.40;99.90;;;;;;4992724;28;20036;-69
2023/12/15 05:25:44;;;;;;;187.50;40.20;;;5.30;99.90;;;;;;4992696;28;20054;-68
2023/12/15 05:28:09;;;;;;;175.57;40.17;;;5.30;99.90;;;;;;4994298;28;20546;-70
2023/12/15 05:30:36;;;;;;;226.48;42.72;;;5.30;99.90;;;;;;4994687;28;20026;-69
2023/12/15 05:33:02;;;;;;;234.30;44.20;;;5.30;99.90;;;;;;4994458;28;20042;-70
2023/12/15 05:35:27;;;;;;;200.90;42.10;;;5.30;99.90;;;;;;4994200;28;20026;-69
2023/12/15 05:37:53;;;;;;;212.15;43.58;;;5.30;99.90;;;;;;4994114;28;20022;-70
2023/12/15 05:40:19;;;;;;;170.02;39.20;;;5.40;99.90;;;;;;4994229;28;20030;-69
2023/12/15 05:42:44;;;;;;;176.90;37.38;;;5.40;99.90;;;;;;4994473;28;20027;-69
2023/12/15 05:45:11;;;;;;;222.68;41.75;;;5.40;99.90;;;;;;4994114;28;20030;-70
2023/12/15 05:47:36;;;;;;;182.23;39.92;;;5.40;99.90;;;;;;4993985;28;20057;-70
2023/12/15 05:50:02;;;;;;;197.95;39.60;;;5.40;99.90;;;;;;4994203;28;20483;-69
2023/12/15 05:52:28;;;;;;;203.05;41.28;;;5.40;99.90;;;;;;4988841;28;20072;-70
2023/12/15 05:54:54;;;;;;;184.88;40.00;;;5.50;99.90;;;;;;4993043;28;20073;-69
2023/12/15 05:57:19;;;;;;;210.60;41.53;;;5.40;99.90;;;;;;4993038;28;20034;-70
2023/12/15 05:59:45;;;;;;;205.35;41.63;;;5.40;99.90;;;;;;4992266;28;20049;-67
2023/12/15 06:02:10;;;;;;;196.52;40.92;;;5.50;99.90;;;;;;4987767;28;20107;-70
2023/12/15 06:04:36;;;;;;;165.15;38.15;;;5.50;99.90;;;;;;4991483;28;20046;-70
2023/12/15 06:07:02;;;;;;;230.73;42.58;;;5.60;99.90;;;;;;4991249;28;20029;-71
2023/12/15 06:09:27;;;;;;;181.65;40.70;;;5.60;99.90;;;;;;4993692;28;20037;-69
2023/12/15 06:11:53;;;;;;;191.65;40.95;;;5.60;99.90;;;;;;4993670;28;20030;-68
2023/12/15 06:14:22;;;;;;;186.57;39.10;;;5.50;99.90;;;;;;4991685;28;20447;-68
2023/12/15 06:16:48;;;;;;;178.10;37.95;;;5.60;99.90;;;;;;4992287;28;20120;-67
2023/12/15 06:19:14;;;;;;;163.23;37.00;;;5.60;99.90;;;;;;4990415;28;20031;-68
2023/12/15 06:21:40;;;;;;;174.43;38.90;;;5.60;99.90;;;;;;4992475;28;20026;-65
2023/12/15 06:24:06;;;;;;;162.25;36.85;;;5.70;99.90;;;;;;4993877;28;20493;-67
2023/12/15 06:26:31;;;;;;;179.23;39.05;;;5.70;99.90;;;;;;4992930;28;20157;-68
2023/12/15 06:28:57;;;;;;;195.88;40.42;;;5.70;99.90;;;;;;4993297;28;20464;-68
2023/12/15 06:31:27;;;;;;;153.88;34.97;;;5.70;99.90;;;;;;4992373;28;20041;-69
2023/12/15 06:33:53;;;;;;;185.68;39.92;;;5.70;99.90;;;;;;4993531;28;20444;-68
2023/12/15 06:36:19;;;;;;;172.15;38.10;;;5.80;99.90;;;;;;4993500;28;20102;-69
2023/12/15 06:38:44;;;;;;;182.85;39.38;;;5.80;99.90;;;;;;4986814;28;20046;-68
2023/12/15 06:41:14;;;;;;;180.57;38.45;;;5.80;99.90;;;;;;4990135;28;20041;-67
2023/12/15 06:43:41;;;;;;;185.45;40.78;;;5.80;99.90;;;;;;4990903;28;20026;-66
2023/12/15 06:46:06;;;;;;;192.32;40.22;;;5.80;99.90;;;;;;4991755;28;20061;-71
2023/12/15 06:48:32;;;;;;;183.55;38.92;;;5.80;99.90;;;;;;4992638;28;20023;-70
2023/12/15 06:50:58;;;;;;;161.75;37.78;;;5.80;99.90;;;;;;4991421;28;20057;-67
2023/12/15 06:53:23;;;;;;;186.48;39.42;;;5.90;99.90;;;;;;4990812;28;20138;-69
2023/12/15 06:55:49;;;;;;;176.18;37.17;;;5.80;99.90;;;;;;4991884;28;20030;-69
2023/12/15 06:58:14;;;;;;;192.93;40.38;;;5.90;99.90;;;;;;4992261;28;20034;-68
2023/12/15 07:00:40;;;;;;;160.43;37.60;;;5.90;99.90;;;;;;4992105;28;20062;-68
2023/12/15 07:03:05;;;;;;;188.48;41.55;;;5.80;99.90;;;;;;4992812;28;20026;-69
2023/12/15 07:05:31;;;;;;;160.45;35.33;;;6.00;99.90;;;;;;4992775;28;20023;-68
2023/12/15 07:07:57;;;;;;;145.35;34.83;;;5.90;99.90;;;;;;4990611;28;20038;-67
2023/12/15 07:10:23;;;;;;;139.70;34.70;;;6.00;99.90;;;;;;4991455;28;20026;-67
2023/12/15 07:12:48;;;;;;;173.85;39.00;;;5.90;99.90;;;;;;4991651;28;20074;-68
2023/12/15 07:15:15;;;;;;;186.10;38.03;;;5.90;99.90;;;;;;4992821;28;20046;-67
2023/12/15 07:17:41;;;;;;;169.05;37.85;;;6.00;99.90;;;;;;5006809;28;20038;-69
2023/12/15 07:20:08;;;;;;;167.25;39.53;;;5.90;99.90;;;;;;4992658;28;20026;-68
2023/12/15 07:22:33;;;;;;;158.25;38.25;;;6.00;99.90;;;;;;4990921;28;20080;-68
2023/12/15 07:24:59;;;;;;;164.13;37.92;;;6.00;99.90;;;;;;4991011;28;20077;-68
2023/12/15 07:27:25;;;;;;;155.30;37.53;;;6.00;99.90;;;;;;4991658;28;20090;-68
2023/12/15 07:29:52;;;;;;;145.93;36.58;;;6.00;99.90;;;;;;4990744;28;20739;-68
2023/12/15 07:32:18;;;;;;;162.32;36.58;;;6.00;99.90;;;;;;4992526;28;20042;-68
2023/12/15 07:34:43;;;;;;;138.00;36.10;;;6.10;99.90;;;;;;4990878;28;20026;-68
2023/12/15 07:37:09;;;;;;;149.73;36.97;;;6.00;99.90;;;;;;4992516;28;20993;-68
2023/12/15 07:39:34;;;;;;;160.85;38.50;;;6.10;99.90;;;;;;4991831;28;20026;-68
2023/12/15 07:42:00;;;;;;;160.90;38.50;;;6.10;99.90;;;;;;4992000;28;20054;-69
2023/12/15 07:44:25;;;;;;;157.15;37.50;;;6.10;99.90;;;;;;4989688;28;20026;-68
2023/12/15 07:46:54;;;;;;;147.88;36.33;;;6.10;99.90;;;;;;4983656;28;20035;-69
2023/12/15 07:49:20;;;;;;;139.52;33.60;;;6.10;99.90;;;;;;4988065;28;20035;-70
2023/12/15 07:51:46;;;;;;;167.63;35.90;;;6.10;99.90;;;;;;4989464;28;20030;-69
2023/12/15 07:54:11;;;;;;;139.40;35.83;;;6.10;99.90;;;;;;4989139;28;20089;-69
2023/12/15 07:56:37;;;;;;;162.40;36.67;;;6.10;99.90;;;;;;4988550;28;20030;-70
2023/12/15 07:59:02;;;;;;;177.00;36.85;;;6.10;99.90;;;;;;4990879;28;20070;-69
2023/12/15 08:01:28;;;;;;;170.98;38.08;;;6.20;99.90;;;;;;4989370;28;20039;-67
2023/12/15 08:03:53;;;;;;;161.57;36.83;;;6.20;99.90;;;;;;4985609;28;20022;-70
2023/12/15 08:06:19;;;;;;;157.05;37.22;;;6.20;99.90;;;;;;4990597;28;20026;-69
2023/12/15 08:08:46;;;;;;;156.73;37.85;;;6.20;99.90;;;;;;4983279;28;20027;-69
2023/12/15 08:11:13;;;;;;;161.43;37.40;;;6.20;99.90;;;;;;4975461;28;20046;-70
2023/12/15 08:13:39;;;;;;;173.98;38.33;;;6.20;99.90;;;;;;4987694;28;20042;-69
2023/12/15 08:16:06;;;;;;;168.05;38.28;;;6.20;99.90;;;;;;4989840;28;20441;-69
2023/12/15 08:18:31;;;;;;;139.23;36.95;;;6.30;99.90;;;;;;4986265;28;20034;-69
2023/12/15 08:20:59;;;;;;;149.68;36.75;;;6.30;99.90;;;;;;4986471;28;20186;-68
2023/12/15 08:23:26;;;;;;;161.70;39.50;;;6.30;99.90;;;;;;4990216;28;20051;-69
2023/12/15 08:25:51;;;;;;;155.20;37.33;;;6.30;99.90;;;;;;4989462;28;20054;-69
2023/12/15 08:28:19;;;;;;;165.85;38.35;;;6.40;99.90;;;;;;4991596;28;20393;-68
2023/12/15 08:30:45;;;;;;;152.00;36.53;;;6.40;99.90;;;;;;4991632;28;20018;-69
2023/12/15 08:33:11;;;;;;;142.40;36.20;;;6.40;99.90;;;;;;4991315;28;20047;-69
2023/12/15 08:35:36;;;;;;;143.68;35.75;;;6.40;99.90;;;;;;4989077;28;20037;-70
2023/12/15 08:38:02;;;;;;;152.02;36.60;;;6.50;99.90;;;;;;4983555;28;20030;-72
2023/12/15 08:40:27;;;;;;;137.63;35.50;;;6.50;99.90;;;;;;4991136;28;20022;-68
2023/12/15 08:42:53;;;;;;;122.07;35.50;;;6.60;99.90;;;;;;4991200;28;20038;-69
2023/12/15 08:45:19;;;;;;;126.97;34.90;;;6.60;99.90;;;;;;4991381;28;20031;-68
2023/12/15 08:47:44;;;;;;;141.70;36.05;;;6.60;99.90;;;;;;4990888;28;20082;-70
2023/12/15 08:50:10;;;;;;;133.38;35.08;;;6.60;99.90;;;;;;4991292;28;20023;-69
2023/12/15 08:52:36;;;;;;;136.65;37.28;;;6.70;99.90;;;;;;4990476;28;20073;-70
2023/12/15 08:55:01;;;;;;;126.70;35.35;;;6.70;99.90;;;;;;4990543;28;20026;-70
2023/12/15 08:57:27;;;;;;;130.52;35.80;;;6.70;99.90;;;;;;4984084;28;20473;-70
2023/12/15 08:59:53;;;;;;;132.43;34.30;;;6.80;99.90;;;;;;4990436;28;20062;-69
2023/12/15 09:02:19;;;;;;;112.10;32.53;;;6.80;99.90;;;;;;4987309;28;20023;-68
2023/12/15 09:04:45;;;;;;;123.78;34.55;;;6.80;99.90;;;;;;4987471;28;20508;-69
2023/12/15 09:07:11;;;;;;;105.57;31.55;;;6.80;99.90;;;;;;4988384;28;20046;-69
2023/12/15 09:09:38;;;;;;;129.00;33.28;;;6.80;99.90;;;;;;4990339;28;20038;-69
2023/12/15 09:12:04;;;;;;;128.45;32.17;;;6.80;99.90;;;;;;4988874;28;20046;-71
2023/12/15 09:14:30;;;;;;;110.47;32.75;;;6.90;99.90;;;;;;4989415;28;20023;-71
2023/12/15 09:16:56;;;;;;;107.57;31.75;;;6.90;99.90;;;;;;4988471;28;20049;-69
2023/12/15 09:19:24;;;;;;;100.00;31.55;;;6.90;99.90;;;;;;4992340;28;20167;-70
2023/12/15 09:21:50;;;;;;;106.75;30.42;;;6.90;99.90;;;;;;4992482;28;20050;-70
2023/12/15 09:24:17;;;;;;;101.90;30.75;;;6.90;99.90;;;;;;4990303;28;20026;-70
2023/12/15 09:26:44;;;;;;;100.18;30.23;;;7.00;99.90;;;;;;4989230;28;20059;-69
2023/12/15 09:29:10;;;;;;;100.40;29.63;;;7.00;99.90;;;;;;4992377;28;20027;-69
2023/12/15 09:31:36;;;;;;;116.78;29.50;;;7.00;99.90;;;;;;4989186;28;20031;-71
2023/12/15 09:34:01;;;;;;;105.72;29.60;;;7.10;99.90;;;;;;4992120;28;20057;-71
2023/12/15 09:36:27;;;;;;;95.65;28.45;;;7.10;99.90;;;;;;4992832;28;20032;-68
2023/12/15 09:38:53;;;;;;;89.32;27.15;;;7.10;99.90;;;;;;4993487;28;20038;-70
2023/12/15 09:41:19;;;;;;;87.13;27.98;;;7.20;99.90;;;;;;4994824;28;20026;-68
2023/12/15 09:43:45;;;;;;;94.55;29.35;;;7.20;99.90;;;;;;4984845;28;20053;-70
2023/12/15 09:46:11;;;;;;;95.28;27.95;;;7.20;99.90;;;;;;4989513;28;20039;-70
2023/12/15 09:48:37;;;;;;;96.13;27.77;;;7.20;99.90;;;;;;4991803;28;20115;-70
2023/12/15 09:51:07;;;;;;;96.55;27.50;;;7.30;99.90;;;;;;4991403;28;20018;-71
2023/12/15 09:53:35;;;;;;;85.65;25.05;;;7.30;99.90;;;;;;4993749;28;20035;-70
2023/12/15 09:56:01;;;;;;;100.05;27.50;;;7.30;99.90;;;;;;4991413;28;20030;-69
2023/12/15 09:58:27;;;;;;;83.50;25.83;;;7.40;99.90;;;;;;4992452;28;20080;-70
2023/12/15 10:00:52;;;;;;;90.32;25.58;;;7.40;99.90;;;;;;4977268;28;20415;-71
2023/12/15 10:03:18;;;;;;;84.15;25.83;;;7.40;99.90;;;;;;4989104;28;20124;-69
2023/12/15 10:05:43;;;;;;;85.53;26.48;;;7.50;99.90;;;;;;4989191;28;20026;-69
2023/12/15 10:08:09;;;;;;;86.15;26.67;;;7.50;99.90;;;;;;4991148;28;20037;-69
2023/12/15 10:10:35;;;;;;;89.97;27.30;;;7.50;99.90;;;;;;4992994;28;20034;-70
2023/12/15 10:13:01;;;;;;;87.47;26.27;;;7.50;99.90;;;;;;4990191;28;20050;-69
2023/12/15 10:15:27;;;;;;;81.00;26.67;;;7.50;99.90;;;;;;4991438;28;20035;-70
2023/12/15 10:17:54;;;;;;;84.45;25.70;;;7.60;99.90;;;;;;4985783;28;20625;-71
2023/12/15 10:20:22;;;;;;;78.25;24.30;;;7.60;99.90;;;;;;4990985;28;20023;-71
2023/12/15 10:22:48;;;;;;;78.90;23.45;;;7.60;99.90;;;;;;5006068;28;20033;-70
2023/12/15 10:25:23;;;;;;;78.72;22.05;;;7.70;99.90;;;;;;4992617;28;20022;-70
2023/12/15 10:27:50;;;;;;;63.53;20.35;;;7.70;99.90;;;;;;4989087;28;20050;-71
2023/12/15 10:30:19;;;;;;;75.28;21.40;;;7.70;99.90;;;;;;4992737;28;21146;-71
2023/12/15 10:32:45;;;;;;;65.40;20.60;;;7.80;99.90;;;;;;4992854;28;20502;-70
2023/12/15 10:35:24;;;;;;;60.75;19.63;;;7.80;99.90;;;;;;4991273;28;20022;-71
2023/12/15 10:37:50;;;;;;;66.15;20.02;;;7.90;99.90;;;;;;4990962;28;20551;-71
2023/12/15 10:40:17;;;;;;;64.25;20.98;;;7.90;99.90;;;;;;4984391;28;20035;-71
2023/12/15 10:42:44;;;;;;;63.50;19.77;;;7.90;99.90;;;;;;4989471;28;20031;-70
2023/12/15 10:45:10;;;;;;;74.55;20.48;;;7.90;99.90;;;;;;4990564;28;20113;-71
2023/12/15 10:47:36;;;;;;;71.13;19.95;;;7.90;99.90;;;;;;4990995;28;20033;-69
2023/12/15 10:50:03;;;;;;;69.28;19.90;;;7.90;99.90;;;;;;4990466;28;20105;-71
2023/12/15 10:52:35;;;;;;;64.85;19.52;;;8.00;99.90;;;;;;4986312;28;20050;-70
2023/12/15 10:55:04;;;;;;;65.32;18.63;;;7.90;99.90;;;;;;4988976;28;20030;-70
2023/12/15 10:57:31;;;;;;;57.38;18.92;;;7.90;99.90;;;;;;4990931;28;20027;-70
2023/12/15 10:59:57;;;;;;;76.55;18.60;;;8.00;99.90;;;;;;4989694;28;20030;-70
2023/12/15 11:02:24;;;;;;;64.95;19.65;;;7.90;99.90;;;;;;4991414;28;20117;-69
2023/12/15 11:04:51;;;;;;;53.20;17.25;;;8.00;99.90;;;;;;4990187;28;20033;-69
2023/12/15 11:07:21;;;;;;;62.00;17.08;;;8.00;99.90;;;;;;4987957;28;20030;-68
2023/12/15 11:09:48;;;;;;;62.25;16.67;;;8.00;99.90;;;;;;4991029;28;20031;-70
2023/12/15 11:12:19;;;;;;;57.30;15.85;;;8.00;99.90;;;;;;4984625;28;20023;-70
2023/12/15 11:15:04;;;;;;;56.53;16.27;;;8.00;99.90;;;;;;4990766;28;20054;-70
2023/12/15 11:17:31;;;;;;;53.38;16.33;;;8.10;99.90;;;;;;4988140;28;20038;-68
2023/12/15 11:20:03;;;;;;;53.25;15.73;;;8.10;99.90;;;;;;4989402;28;20395;-69
2023/12/15 11:22:29;;;;;;;47.80;16.60;;;8.10;99.90;;;;;;4992124;28;20075;-68
2023/12/15 11:24:56;;;;;;;61.83;16.50;;;8.10;99.90;;;;;;4989376;28;20125;-69
2023/12/15 11:27:22;;;;;;;50.30;16.42;;;8.10;99.90;;;;;;4991090;28;20058;-70
2023/12/15 11:29:48;;;;;;;54.78;16.55;;;8.10;99.90;;;;;;4986554;28;20055;-69
2023/12/15 11:32:30;;;;;;;60.60;16.60;;;8.00;99.90;;;;;;4989563;28;20026;-69
2023/12/15 11:34:57;;;;;;;53.78;15.77;;;8.00;99.90;;;;;;4985432;28;20058;-70
2023/12/15 11:37:24;;;;;;;49.40;14.65;;;8.10;99.90;;;;;;4990933;28;20105;-69
2023/12/15 11:39:50;;;;;;;51.85;15.02;;;8.10;99.90;;;;;;4992119;28;20030;-71
2023/12/15 11:42:16;;;;;;;46.83;14.80;;;8.20;99.90;;;;;;4992616;28;20111;-70
2023/12/15 11:44:44;;;;;;;63.80;15.95;;;8.20;99.90;;;;;;4992264;28;20038;-71
2023/12/15 11:47:11;;;;;;;62.08;14.80;;;8.20;99.90;;;;;;4992379;28;20023;-69
2023/12/15 11:49:42;;;;;;;63.20;14.57;;;8.20;99.90;;;;;;4990898;28;20037;-70
2023/12/15 11:52:10;;;;;;;45.78;14.23;;;8.20;99.90;;;;;;4992158;28;20026;-70
2023/12/15 11:54:36;;;;;;;54.88;13.73;;;8.20;99.90;;;;;;4992268;28;20503;-70
2023/12/15 11:57:05;;;;;;;46.50;13.00;;;8.20;99.90;;;;;;4992218;28;20029;-70
2023/12/15 11:59:44;;;;;;;54.55;14.07;;;8.20;99.90;;;;;;4998610;28;20037;-70
2023/12/15 12:02:14;;;;;;;49.47;12.45;;;8.30;99.90;;;;;;4992301;28;20384;-68
2023/12/15 12:04:43;;;;;;;59.13;13.02;;;8.30;99.90;;;;;;4991611;28;20073;-70
2023/12/15 12:07:08;;;;;;;47.65;12.65;;;8.30;99.90;;;;;;4991266;28;20369;-69
2023/12/15 12:09:34;;;;;;;44.83;12.45;;;8.30;99.90;;;;;;4991275;28;20041;-70
2023/12/15 12:12:00;;;;;;;51.17;13.95;;;8.30;99.90;;;;;;4991934;28;20073;-70
2023/12/15 12:14:27;;;;;;;52.03;12.85;;;8.30;99.90;;;;;;5006509;28;20045;-69
2023/12/15 12:16:53;;;;;;;44.42;11.73;;;8.40;99.90;;;;;;4991799;28;20031;-70
2023/12/15 12:19:21;;;;;;;50.80;12.68;;;8.40;99.90;;;;;;4992006;28;20057;-70
2023/12/15 12:21:50;;;;;;;52.88;12.30;;;8.40;99.90;;;;;;4990277;28;20050;-71
2023/12/15 12:24:15;;;;;;;49.33;12.65;;;8.40;99.90;;;;;;4991944;28;20030;-70
2023/12/15 12:26:41;;;;;;;53.25;12.55;;;8.40;99.90;;;;;;4989984;28;20423;-70